sensor_id;sensor_type;location;lat;lon;timestamp;P1;durP1;ratioP1;P2;durP2;ratioP2
77890;SDS011;67084;43.624;3.876;2024-01-11T00:00:32;34.60;;;21.45;;
77890;SDS011;67084;43.624;3.876;2024-01-11T00:02:59;30.67;;;17.95;;
77890;SDS011;67084;43.624;3.876;2024-01-11T00:05:25;29.42;;;19.50;;
77890;SDS011;67084;43.624;3.876;2024-01-11T00:07:51;29.77;;;18.52;;
77890;SDS011;67084;43.624;3.876;2024-01-11T00:10:17;32.92;;;20.55;;
77890;SDS011;67084;43.624;3.876;2024-01-11T00:12:44;31.85;;;18.65;;
77890;SDS011;67084;43.624;3.876;2024-01-11T00:15:10;33.10;;;19.95;;
77890;SDS011;67084;43.624;3.876;2024-01-11T00:17:36;35.90;;;19.63;;
77890;SDS011;67084;43.624;3.876;2024-01-11T00:20:02;33.30;;;19.55;;
77890;SDS011;67084;43.624;3.876;2024-01-11T00:22:28;36.70;;;19.80;;
77890;SDS011;67084;43.624;3.876;2024-01-11T00:24:54;34.83;;;19.48;;
77890;SDS011;67084;43.624;3.876;2024-01-11T00:27:20;37.85;;;20.70;;
77890;SDS011;67084;43.624;3.876;2024-01-11T00:29:46;33.15;;;20.02;;
77890;SDS011;67084;43.624;3.876;2024-01-11T00:32:12;40.63;;;27.58;;
77890;SDS011;67084;43.624;3.876;2024-01-11T00:34:38;40.20;;;22.23;;
77890;SDS011;67084;43.624;3.876;2024-01-11T00:37:04;38.33;;;21.65;;
77890;SDS011;67084;43.624;3.876;2024-01-11T00:39:30;47.30;;;31.90;;
77890;SDS011;67084;43.624;3.876;2024-01-11T00:41:56;38.03;;;21.42;;
77890;SDS011;67084;43.624;3.876;2024-01-11T00:44:22;39.63;;;21.80;;
77890;SDS011;67084;43.624;3.876;2024-01-11T00:46:48;42.08;;;23.85;;
77890;SDS011;67084;43.624;3.876;2024-01-11T00:49:14;38.53;;;20.70;;
77890;SDS011;67084;43.624;3.876;2024-01-11T00:51:41;39.83;;;22.15;;
77890;SDS011;67084;43.624;3.876;2024-01-11T00:54:07;43.33;;;22.65;;
77890;SDS011;67084;43.624;3.876;2024-01-11T00:56:33;38.05;;;21.58;;
77890;SDS011;67084;43.624;3.876;2024-01-11T00:58:59;41.80;;;22.90;;
77890;SDS011;67084;43.624;3.876;2024-01-11T01:01:25;39.80;;;22.00;;
77890;SDS011;67084;43.624;3.876;2024-01-11T01:03:51;41.00;;;22.63;;
77890;SDS011;67084;43.624;3.876;2024-01-11T01:06:17;40.25;;;22.38;;
77890;SDS011;67084;43.624;3.876;2024-01-11T01:08:43;42.75;;;24.45;;
77890;SDS011;67084;43.624;3.876;2024-01-11T01:11:09;39.13;;;22.45;;
77890;SDS011;67084;43.624;3.876;2024-01-11T01:13:35;41.95;;;22.55;;
77890;SDS011;67084;43.624;3.876;2024-01-11T01:16:01;42.53;;;23.27;;
77890;SDS011;67084;43.624;3.876;2024-01-11T01:18:27;45.00;;;22.67;;
77890;SDS011;67084;43.624;3.876;2024-01-11T01:20:53;44.47;;;24.33;;
77890;SDS011;67084;43.624;3.876;2024-01-11T01:23:19;36.28;;;21.55;;
77890;SDS011;67084;43.624;3.876;2024-01-11T01:25:45;42.40;;;23.00;;
77890;SDS011;67084;43.624;3.876;2024-01-11T01:28:11;41.40;;;22.60;;
77890;SDS011;67084;43.624;3.876;2024-01-11T01:30:37;40.20;;;22.05;;
77890;SDS011;67084;43.624;3.876;2024-01-11T01:33:03;40.13;;;22.42;;
77890;SDS011;67084;43.624;3.876;2024-01-11T01:35:29;40.45;;;21.50;;
77890;SDS011;67084;43.624;3.876;2024-01-11T01:37:55;39.33;;;22.33;;
77890;SDS011;67084;43.624;3.876;2024-01-11T01:40:21;42.83;;;22.67;;
77890;SDS011;67084;43.624;3.876;2024-01-11T01:42:47;39.13;;;20.98;;
77890;SDS011;67084;43.624;3.876;2024-01-11T01:45:14;39.25;;;21.30;;
77890;SDS011;67084;43.624;3.876;2024-01-11T01:47:41;36.63;;;21.80;;
77890;SDS011;67084;43.624;3.876;2024-01-11T01:50:08;37.10;;;20.55;;
77890;SDS011;67084;43.624;3.876;2024-01-11T01:52:35;31.38;;;19.67;;
77890;SDS011;67084;43.624;3.876;2024-01-11T01:55:02;34.05;;;20.63;;
77890;SDS011;67084;43.624;3.876;2024-01-11T01:57:29;36.35;;;19.67;;
77890;SDS011;67084;43.624;3.876;2024-01-11T01:59:56;33.50;;;18.95;;
77890;SDS011;67084;43.624;3.876;2024-01-11T02:02:22;35.95;;;21.73;;
77890;SDS011;67084;43.624;3.876;2024-01-11T02:04:48;37.65;;;20.83;;
77890;SDS011;67084;43.624;3.876;2024-01-11T02:07:15;34.72;;;19.42;;
77890;SDS011;67084;43.624;3.876;2024-01-11T02:09:41;34.92;;;20.23;;
77890;SDS011;67084;43.624;3.876;2024-01-11T02:12:08;34.88;;;18.90;;
77890;SDS011;67084;43.624;3.876;2024-01-11T02:14:37;33.60;;;19.05;;
77890;SDS011;67084;43.624;3.876;2024-01-11T02:17:03;35.72;;;21.13;;
77890;SDS011;67084;43.624;3.876;2024-01-11T02:19:29;36.55;;;20.92;;
77890;SDS011;67084;43.624;3.876;2024-01-11T02:21:55;31.45;;;19.17;;
77890;SDS011;67084;43.624;3.876;2024-01-11T02:24:25;32.15;;;18.52;;
77890;SDS011;67084;43.624;3.876;2024-01-11T02:27:01;33.95;;;20.13;;
77890;SDS011;67084;43.624;3.876;2024-01-11T02:29:27;28.95;;;18.23;;
77890;SDS011;67084;43.624;3.876;2024-01-11T02:31:54;30.15;;;18.63;;
77890;SDS011;67084;43.624;3.876;2024-01-11T02:34:20;31.20;;;17.50;;
77890;SDS011;67084;43.624;3.876;2024-01-11T02:36:46;30.65;;;17.80;;
77890;SDS011;67084;43.624;3.876;2024-01-11T02:39:13;32.83;;;18.50;;
77890;SDS011;67084;43.624;3.876;2024-01-11T02:41:42;32.17;;;17.63;;
77890;SDS011;67084;43.624;3.876;2024-01-11T02:44:08;34.47;;;19.27;;
77890;SDS011;67084;43.624;3.876;2024-01-11T02:46:35;34.35;;;20.23;;
77890;SDS011;67084;43.624;3.876;2024-01-11T02:49:01;33.33;;;20.70;;
77890;SDS011;67084;43.624;3.876;2024-01-11T02:51:27;33.53;;;20.00;;
77890;SDS011;67084;43.624;3.876;2024-01-11T02:53:53;36.45;;;20.00;;
77890;SDS011;67084;43.624;3.876;2024-01-11T02:56:19;37.38;;;20.33;;
77890;SDS011;67084;43.624;3.876;2024-01-11T02:58:45;35.78;;;21.35;;
77890;SDS011;67084;43.624;3.876;2024-01-11T03:01:11;37.13;;;20.05;;
77890;SDS011;67084;43.624;3.876;2024-01-11T03:03:37;37.90;;;21.35;;
77890;SDS011;67084;43.624;3.876;2024-01-11T03:06:03;36.92;;;21.30;;
77890;SDS011;67084;43.624;3.876;2024-01-11T03:08:29;35.83;;;18.95;;
77890;SDS011;67084;43.624;3.876;2024-01-11T03:10:55;35.85;;;20.55;;
77890;SDS011;67084;43.624;3.876;2024-01-11T03:13:21;36.72;;;20.60;;
77890;SDS011;67084;43.624;3.876;2024-01-11T03:15:47;39.63;;;21.33;;
77890;SDS011;67084;43.624;3.876;2024-01-11T03:18:13;37.15;;;21.48;;
77890;SDS011;67084;43.624;3.876;2024-01-11T03:20:39;38.08;;;20.40;;
77890;SDS011;67084;43.624;3.876;2024-01-11T03:23:06;36.88;;;19.83;;
77890;SDS011;67084;43.624;3.876;2024-01-11T03:25:32;35.20;;;20.00;;
77890;SDS011;67084;43.624;3.876;2024-01-11T03:27:58;35.00;;;20.73;;
77890;SDS011;67084;43.624;3.876;2024-01-11T03:30:24;34.25;;;19.02;;
77890;SDS011;67084;43.624;3.876;2024-01-11T03:32:50;35.33;;;19.50;;
77890;SDS011;67084;43.624;3.876;2024-01-11T03:35:17;36.55;;;20.92;;
77890;SDS011;67084;43.624;3.876;2024-01-11T03:37:43;35.97;;;19.45;;
77890;SDS011;67084;43.624;3.876;2024-01-11T03:40:09;33.90;;;20.88;;
77890;SDS011;67084;43.624;3.876;2024-01-11T03:42:36;35.47;;;19.50;;
77890;SDS011;67084;43.624;3.876;2024-01-11T03:45:03;36.35;;;24.92;;
77890;SDS011;67084;43.624;3.876;2024-01-11T03:47:29;31.88;;;18.70;;
77890;SDS011;67084;43.624;3.876;2024-01-11T03:49:55;32.75;;;20.05;;
77890;SDS011;67084;43.624;3.876;2024-01-11T03:52:21;34.13;;;19.20;;
77890;SDS011;67084;43.624;3.876;2024-01-11T03:54:47;33.03;;;18.60;;
77890;SDS011;67084;43.624;3.876;2024-01-11T03:57:13;33.97;;;18.00;;
77890;SDS011;67084;43.624;3.876;2024-01-11T03:59:39;34.25;;;19.95;;
77890;SDS011;67084;43.624;3.876;2024-01-11T04:02:06;32.65;;;19.38;;
77890;SDS011;67084;43.624;3.876;2024-01-11T04:04:32;31.30;;;18.52;;
77890;SDS011;67084;43.624;3.876;2024-01-11T04:06:58;32.65;;;20.48;;
77890;SDS011;67084;43.624;3.876;2024-01-11T04:09:24;41.13;;;27.55;;
77890;SDS011;67084;43.624;3.876;2024-01-11T04:11:50;36.97;;;19.83;;
77890;SDS011;67084;43.624;3.876;2024-01-11T04:14:16;36.88;;;19.23;;
77890;SDS011;67084;43.624;3.876;2024-01-11T04:16:42;34.75;;;20.83;;
77890;SDS011;67084;43.624;3.876;2024-01-11T04:19:09;32.70;;;18.38;;
77890;SDS011;67084;43.624;3.876;2024-01-11T04:21:35;37.08;;;20.63;;
77890;SDS011;67084;43.624;3.876;2024-01-11T04:24:03;34.53;;;21.25;;
77890;SDS011;67084;43.624;3.876;2024-01-11T04:26:30;36.97;;;21.30;;
77890;SDS011;67084;43.624;3.876;2024-01-11T04:28:57;41.45;;;21.08;;
77890;SDS011;67084;43.624;3.876;2024-01-11T04:31:24;35.10;;;19.80;;
77890;SDS011;67084;43.624;3.876;2024-01-11T04:33:50;37.78;;;20.42;;
77890;SDS011;67084;43.624;3.876;2024-01-11T04:36:16;37.28;;;19.02;;
77890;SDS011;67084;43.624;3.876;2024-01-11T04:38:42;36.13;;;19.83;;
77890;SDS011;67084;43.624;3.876;2024-01-11T04:41:12;37.38;;;19.48;;
77890;SDS011;67084;43.624;3.876;2024-01-11T04:43:44;40.70;;;21.13;;
77890;SDS011;67084;43.624;3.876;2024-01-11T04:46:20;40.00;;;20.75;;
77890;SDS011;67084;43.624;3.876;2024-01-11T04:48:47;37.85;;;21.10;;
77890;SDS011;67084;43.624;3.876;2024-01-11T04:51:14;39.55;;;19.02;;
77890;SDS011;67084;43.624;3.876;2024-01-11T04:53:40;36.35;;;19.77;;
77890;SDS011;67084;43.624;3.876;2024-01-11T04:56:06;43.03;;;22.08;;
77890;SDS011;67084;43.624;3.876;2024-01-11T04:58:33;39.83;;;18.90;;
77890;SDS011;67084;43.624;3.876;2024-01-11T05:00:59;34.70;;;19.05;;
77890;SDS011;67084;43.624;3.876;2024-01-11T05:03:25;37.63;;;20.02;;
77890;SDS011;67084;43.624;3.876;2024-01-11T05:05:51;39.88;;;20.65;;
77890;SDS011;67084;43.624;3.876;2024-01-11T05:08:17;38.20;;;21.05;;
77890;SDS011;67084;43.624;3.876;2024-01-11T05:10:43;35.63;;;20.30;;
77890;SDS011;67084;43.624;3.876;2024-01-11T05:13:10;35.38;;;20.60;;
77890;SDS011;67084;43.624;3.876;2024-01-11T05:15:36;38.95;;;19.65;;
77890;SDS011;67084;43.624;3.876;2024-01-11T05:18:02;41.70;;;21.10;;
77890;SDS011;67084;43.624;3.876;2024-01-11T05:20:28;36.72;;;20.48;;
77890;SDS011;67084;43.624;3.876;2024-01-11T05:22:54;35.40;;;18.88;;
77890;SDS011;67084;43.624;3.876;2024-01-11T05:25:21;38.17;;;19.63;;
77890;SDS011;67084;43.624;3.876;2024-01-11T05:27:47;37.50;;;19.67;;
77890;SDS011;67084;43.624;3.876;2024-01-11T05:30:13;38.40;;;20.25;;
77890;SDS011;67084;43.624;3.876;2024-01-11T05:32:39;36.85;;;19.58;;
77890;SDS011;67084;43.624;3.876;2024-01-11T05:35:05;40.65;;;19.75;;
77890;SDS011;67084;43.624;3.876;2024-01-11T05:37:31;38.42;;;21.38;;
77890;SDS011;67084;43.624;3.876;2024-01-11T05:39:58;37.58;;;21.33;;
77890;SDS011;67084;43.624;3.876;2024-01-11T05:42:24;39.78;;;21.63;;
77890;SDS011;67084;43.624;3.876;2024-01-11T05:44:51;46.47;;;29.77;;
77890;SDS011;67084;43.624;3.876;2024-01-11T05:47:17;36.90;;;21.58;;
77890;SDS011;67084;43.624;3.876;2024-01-11T05:49:43;39.70;;;21.35;;
77890;SDS011;67084;43.624;3.876;2024-01-11T05:52:10;36.85;;;20.80;;
77890;SDS011;67084;43.624;3.876;2024-01-11T05:54:36;41.20;;;20.25;;
77890;SDS011;67084;43.624;3.876;2024-01-11T05:57:02;39.83;;;22.15;;
77890;SDS011;67084;43.624;3.876;2024-01-11T05:59:28;37.30;;;20.67;;
77890;SDS011;67084;43.624;3.876;2024-01-11T06:01:54;39.47;;;21.45;;
77890;SDS011;67084;43.624;3.876;2024-01-11T06:04:24;40.55;;;21.30;;
77890;SDS011;67084;43.624;3.876;2024-01-11T06:06:51;38.03;;;20.15;;
77890;SDS011;67084;43.624;3.876;2024-01-11T06:09:17;37.28;;;19.85;;
77890;SDS011;67084;43.624;3.876;2024-01-11T06:11:43;40.08;;;20.15;;
77890;SDS011;67084;43.624;3.876;2024-01-11T06:14:09;38.17;;;21.17;;
77890;SDS011;67084;43.624;3.876;2024-01-11T06:16:35;39.95;;;20.70;;
77890;SDS011;67084;43.624;3.876;2024-01-11T06:19:01;39.70;;;22.23;;
77890;SDS011;67084;43.624;3.876;2024-01-11T06:21:27;37.85;;;21.13;;
77890;SDS011;67084;43.624;3.876;2024-01-11T06:23:53;34.70;;;20.73;;
77890;SDS011;67084;43.624;3.876;2024-01-11T06:26:19;39.30;;;20.85;;
77890;SDS011;67084;43.624;3.876;2024-01-11T06:28:45;38.47;;;20.95;;
77890;SDS011;67084;43.624;3.876;2024-01-11T06:31:12;40.22;;;21.98;;
77890;SDS011;67084;43.624;3.876;2024-01-11T06:33:38;36.53;;;21.42;;
77890;SDS011;67084;43.624;3.876;2024-01-11T06:36:07;40.50;;;25.10;;
77890;SDS011;67084;43.624;3.876;2024-01-11T06:38:33;40.92;;;19.27;;
77890;SDS011;67084;43.624;3.876;2024-01-11T06:40:59;41.50;;;19.83;;
77890;SDS011;67084;43.624;3.876;2024-01-11T06:43:25;38.03;;;20.77;;
77890;SDS011;67084;43.624;3.876;2024-01-11T06:45:51;36.58;;;19.30;;
77890;SDS011;67084;43.624;3.876;2024-01-11T06:48:18;38.47;;;20.80;;
77890;SDS011;67084;43.624;3.876;2024-01-11T06:50:44;37.67;;;21.00;;
77890;SDS011;67084;43.624;3.876;2024-01-11T06:53:10;37.72;;;22.40;;
77890;SDS011;67084;43.624;3.876;2024-01-11T06:55:36;36.60;;;20.42;;
77890;SDS011;67084;43.624;3.876;2024-01-11T06:58:02;38.67;;;20.83;;
77890;SDS011;67084;43.624;3.876;2024-01-11T07:00:28;36.60;;;20.77;;
77890;SDS011;67084;43.624;3.876;2024-01-11T07:02:54;39.85;;;21.05;;
77890;SDS011;67084;43.624;3.876;2024-01-11T07:05:20;39.45;;;21.23;;
77890;SDS011;67084;43.624;3.876;2024-01-11T07:07:46;38.10;;;21.10;;
77890;SDS011;67084;43.624;3.876;2024-01-11T07:10:12;37.92;;;20.83;;
77890;SDS011;67084;43.624;3.876;2024-01-11T07:12:39;36.92;;;20.08;;
77890;SDS011;67084;43.624;3.876;2024-01-11T07:15:08;38.13;;;20.45;;
77890;SDS011;67084;43.624;3.876;2024-01-11T07:17:34;39.55;;;21.38;;
77890;SDS011;67084;43.624;3.876;2024-01-11T07:20:00;38.33;;;21.00;;
77890;SDS011;67084;43.624;3.876;2024-01-11T07:22:29;38.75;;;21.60;;
77890;SDS011;67084;43.624;3.876;2024-01-11T07:24:55;39.90;;;21.90;;
77890;SDS011;67084;43.624;3.876;2024-01-11T07:27:21;39.38;;;21.67;;
77890;SDS011;67084;43.624;3.876;2024-01-11T07:29:47;39.10;;;24.05;;
77890;SDS011;67084;43.624;3.876;2024-01-11T07:32:13;39.22;;;20.98;;
77890;SDS011;67084;43.624;3.876;2024-01-11T07:34:39;48.53;;;22.35;;
77890;SDS011;67084;43.624;3.876;2024-01-11T07:37:06;43.17;;;23.50;;
77890;SDS011;67084;43.624;3.876;2024-01-11T07:39:32;43.22;;;22.33;;
77890;SDS011;67084;43.624;3.876;2024-01-11T07:41:59;40.63;;;22.35;;
77890;SDS011;67084;43.624;3.876;2024-01-11T07:44:25;40.35;;;21.42;;
77890;SDS011;67084;43.624;3.876;2024-01-11T07:46:51;39.72;;;22.65;;
77890;SDS011;67084;43.624;3.876;2024-01-11T07:49:17;38.38;;;21.92;;
77890;SDS011;67084;43.624;3.876;2024-01-11T07:51:43;41.58;;;22.77;;
77890;SDS011;67084;43.624;3.876;2024-01-11T07:54:09;38.92;;;22.20;;
77890;SDS011;67084;43.624;3.876;2024-01-11T07:56:35;43.45;;;22.65;;
77890;SDS011;67084;43.624;3.876;2024-01-11T07:59:01;41.95;;;22.40;;
77890;SDS011;67084;43.624;3.876;2024-01-11T08:01:27;40.95;;;24.08;;
77890;SDS011;67084;43.624;3.876;2024-01-11T08:03:53;43.83;;;22.45;;
77890;SDS011;67084;43.624;3.876;2024-01-11T08:06:19;45.20;;;30.75;;
77890;SDS011;67084;43.624;3.876;2024-01-11T08:08:45;36.55;;;20.05;;
77890;SDS011;67084;43.624;3.876;2024-01-11T08:11:16;39.03;;;20.75;;
77890;SDS011;67084;43.624;3.876;2024-01-11T08:13:42;37.97;;;20.73;;
77890;SDS011;67084;43.624;3.876;2024-01-11T08:16:08;38.90;;;20.02;;
77890;SDS011;67084;43.624;3.876;2024-01-11T08:18:37;34.47;;;19.88;;
77890;SDS011;67084;43.624;3.876;2024-01-11T08:21:03;37.50;;;21.55;;
77890;SDS011;67084;43.624;3.876;2024-01-11T08:23:34;36.47;;;22.15;;
77890;SDS011;67084;43.624;3.876;2024-01-11T08:26:00;36.03;;;20.42;;
77890;SDS011;67084;43.624;3.876;2024-01-11T08:28:26;39.38;;;20.83;;
77890;SDS011;67084;43.624;3.876;2024-01-11T08:30:52;40.63;;;21.45;;
77890;SDS011;67084;43.624;3.876;2024-01-11T08:33:18;37.05;;;21.13;;
77890;SDS011;67084;43.624;3.876;2024-01-11T08:35:44;35.90;;;20.02;;
77890;SDS011;67084;43.624;3.876;2024-01-11T08:38:10;36.63;;;20.30;;
77890;SDS011;67084;43.624;3.876;2024-01-11T08:40:36;39.50;;;22.95;;
77890;SDS011;67084;43.624;3.876;2024-01-11T08:43:03;34.38;;;20.30;;
77890;SDS011;67084;43.624;3.876;2024-01-11T08:45:29;34.58;;;21.67;;
77890;SDS011;67084;43.624;3.876;2024-01-11T08:47:56;32.25;;;19.92;;
77890;SDS011;67084;43.624;3.876;2024-01-11T08:50:22;34.58;;;18.95;;
77890;SDS011;67084;43.624;3.876;2024-01-11T08:52:48;34.50;;;20.42;;
77890;SDS011;67084;43.624;3.876;2024-01-11T08:55:14;27.05;;;17.60;;
77890;SDS011;67084;43.624;3.876;2024-01-11T08:57:40;34.50;;;18.90;;
77890;SDS011;67084;43.624;3.876;2024-01-11T09:00:06;30.10;;;18.15;;
77890;SDS011;67084;43.624;3.876;2024-01-11T09:02:32;29.35;;;17.33;;
77890;SDS011;67084;43.624;3.876;2024-01-11T09:05:00;31.02;;;21.02;;
77890;SDS011;67084;43.624;3.876;2024-01-11T09:07:27;29.90;;;17.52;;
77890;SDS011;67084;43.624;3.876;2024-01-11T09:09:53;25.38;;;16.50;;
77890;SDS011;67084;43.624;3.876;2024-01-11T09:12:19;28.67;;;17.85;;
77890;SDS011;67084;43.624;3.876;2024-01-11T09:14:45;25.23;;;16.48;;
77890;SDS011;67084;43.624;3.876;2024-01-11T09:17:11;25.67;;;16.48;;
77890;SDS011;67084;43.624;3.876;2024-01-11T09:19:37;29.30;;;18.88;;
77890;SDS011;67084;43.624;3.876;2024-01-11T09:22:04;24.70;;;16.67;;
77890;SDS011;67084;43.624;3.876;2024-01-11T09:24:31;29.60;;;16.85;;
77890;SDS011;67084;43.624;3.876;2024-01-11T09:26:57;25.05;;;16.70;;
77890;SDS011;67084;43.624;3.876;2024-01-11T09:29:23;24.80;;;16.75;;
77890;SDS011;67084;43.624;3.876;2024-01-11T09:31:49;26.50;;;18.33;;
77890;SDS011;67084;43.624;3.876;2024-01-11T09:34:15;25.08;;;16.48;;
77890;SDS011;67084;43.624;3.876;2024-01-11T09:36:42;25.13;;;16.30;;
77890;SDS011;67084;43.624;3.876;2024-01-11T09:39:08;25.98;;;18.02;;
77890;SDS011;67084;43.624;3.876;2024-01-11T09:41:36;24.88;;;17.30;;
77890;SDS011;67084;43.624;3.876;2024-01-11T09:44:02;27.17;;;16.90;;
77890;SDS011;67084;43.624;3.876;2024-01-11T09:46:31;28.88;;;18.55;;
77890;SDS011;67084;43.624;3.876;2024-01-11T09:48:57;28.83;;;17.20;;
77890;SDS011;67084;43.624;3.876;2024-01-11T09:51:24;26.60;;;17.42;;
77890;SDS011;67084;43.624;3.876;2024-01-11T09:53:51;25.00;;;17.25;;
77890;SDS011;67084;43.624;3.876;2024-01-11T09:56:21;28.63;;;18.60;;
77890;SDS011;67084;43.624;3.876;2024-01-11T09:58:49;32.40;;;23.88;;
77890;SDS011;67084;43.624;3.876;2024-01-11T10:01:15;29.45;;;18.77;;
77890;SDS011;67084;43.624;3.876;2024-01-11T10:03:42;31.63;;;27.73;;
77890;SDS011;67084;43.624;3.876;2024-01-11T10:06:08;27.30;;;17.35;;
77890;SDS011;67084;43.624;3.876;2024-01-11T10:08:34;29.80;;;19.77;;
77890;SDS011;67084;43.624;3.876;2024-01-11T10:11:01;28.13;;;18.98;;
77890;SDS011;67084;43.624;3.876;2024-01-11T10:13:28;31.63;;;19.55;;
77890;SDS011;67084;43.624;3.876;2024-01-11T10:16:07;28.75;;;18.65;;
77890;SDS011;67084;43.624;3.876;2024-01-11T10:18:34;31.35;;;19.17;;
77890;SDS011;67084;43.624;3.876;2024-01-11T10:21:00;29.73;;;20.45;;
77890;SDS011;67084;43.624;3.876;2024-01-11T10:23:27;27.30;;;18.00;;
77890;SDS011;67084;43.624;3.876;2024-01-11T10:25:56;29.92;;;19.13;;
77890;SDS011;67084;43.624;3.876;2024-01-11T10:28:23;29.60;;;18.45;;
77890;SDS011;67084;43.624;3.876;2024-01-11T10:30:50;34.40;;;22.92;;
77890;SDS011;67084;43.624;3.876;2024-01-11T10:33:21;29.65;;;19.70;;
77890;SDS011;67084;43.624;3.876;2024-01-11T10:35:50;31.67;;;19.27;;
77890;SDS011;67084;43.624;3.876;2024-01-11T10:38:16;29.77;;;18.45;;
77890;SDS011;67084;43.624;3.876;2024-01-11T10:40:43;29.27;;;19.60;;
77890;SDS011;67084;43.624;3.876;2024-01-11T10:43:09;28.92;;;20.15;;
77890;SDS011;67084;43.624;3.876;2024-01-11T10:45:40;30.17;;;19.35;;
77890;SDS011;67084;43.624;3.876;2024-01-11T10:48:07;30.50;;;20.73;;
77890;SDS011;67084;43.624;3.876;2024-01-11T10:50:37;29.55;;;18.85;;
77890;SDS011;67084;43.624;3.876;2024-01-11T10:55:45;28.88;;;19.52;;
77890;SDS011;67084;43.624;3.876;2024-01-11T10:58:11;28.88;;;17.88;;
77890;SDS011;67084;43.624;3.876;2024-01-11T11:00:38;29.88;;;19.90;;
77890;SDS011;67084;43.624;3.876;2024-01-11T11:03:05;29.10;;;17.67;;
77890;SDS011;67084;43.624;3.876;2024-01-11T11:05:36;29.35;;;19.05;;
77890;SDS011;67084;43.624;3.876;2024-01-11T11:08:03;29.38;;;18.35;;
77890;SDS011;67084;43.624;3.876;2024-01-11T11:10:31;30.63;;;19.33;;
77890;SDS011;67084;43.624;3.876;2024-01-11T11:12:57;30.02;;;19.52;;
77890;SDS011;67084;43.624;3.876;2024-01-11T11:15:24;29.85;;;20.17;;
77890;SDS011;67084;43.624;3.876;2024-01-11T11:17:52;31.25;;;20.23;;
77890;SDS011;67084;43.624;3.876;2024-01-11T11:20:18;28.67;;;19.50;;
77890;SDS011;67084;43.624;3.876;2024-01-11T11:22:48;30.08;;;19.88;;
77890;SDS011;67084;43.624;3.876;2024-01-11T11:25:29;29.85;;;19.05;;
77890;SDS011;67084;43.624;3.876;2024-01-11T11:27:55;29.35;;;18.60;;
77890;SDS011;67084;43.624;3.876;2024-01-11T11:30:22;28.67;;;18.48;;
77890;SDS011;67084;43.624;3.876;2024-01-11T11:32:48;31.63;;;24.48;;
77890;SDS011;67084;43.624;3.876;2024-01-11T11:35:14;31.58;;;22.15;;
77890;SDS011;67084;43.624;3.876;2024-01-11T11:37:40;31.23;;;21.05;;
77890;SDS011;67084;43.624;3.876;2024-01-11T11:40:08;35.58;;;20.35;;
77890;SDS011;67084;43.624;3.876;2024-01-11T11:42:37;33.67;;;22.58;;
77890;SDS011;67084;43.624;3.876;2024-01-11T11:45:05;34.17;;;22.33;;
77890;SDS011;67084;43.624;3.876;2024-01-11T11:47:35;34.80;;;22.40;;
77890;SDS011;67084;43.624;3.876;2024-01-11T11:52:34;40.95;;;24.35;;
77890;SDS011;67084;43.624;3.876;2024-01-11T11:55:01;38.50;;;22.17;;
77890;SDS011;67084;43.624;3.876;2024-01-11T11:57:27;39.72;;;22.75;;
77890;SDS011;67084;43.624;3.876;2024-01-11T11:59:54;37.55;;;21.80;;
77890;SDS011;67084;43.624;3.876;2024-01-11T12:02:22;41.88;;;24.38;;
77890;SDS011;67084;43.624;3.876;2024-01-11T12:04:48;36.38;;;20.88;;
77890;SDS011;67084;43.624;3.876;2024-01-11T12:07:14;37.47;;;21.98;;
77890;SDS011;67084;43.624;3.876;2024-01-11T12:09:41;38.10;;;22.80;;
77890;SDS011;67084;43.624;3.876;2024-01-11T12:12:07;36.78;;;22.13;;
77890;SDS011;67084;43.624;3.876;2024-01-11T12:14:34;38.13;;;24.52;;
77890;SDS011;67084;43.624;3.876;2024-01-11T12:17:00;36.17;;;22.23;;
77890;SDS011;67084;43.624;3.876;2024-01-11T12:19:26;36.30;;;21.58;;
77890;SDS011;67084;43.624;3.876;2024-01-11T12:21:52;33.65;;;21.02;;
77890;SDS011;67084;43.624;3.876;2024-01-11T12:24:19;35.28;;;21.25;;
77890;SDS011;67084;43.624;3.876;2024-01-11T12:26:48;36.30;;;22.13;;
77890;SDS011;67084;43.624;3.876;2024-01-11T12:29:16;32.72;;;21.33;;
77890;SDS011;67084;43.624;3.876;2024-01-11T12:31:46;37.88;;;26.55;;
77890;SDS011;67084;43.624;3.876;2024-01-11T12:34:12;35.30;;;21.90;;
77890;SDS011;67084;43.624;3.876;2024-01-11T12:36:39;33.17;;;23.77;;
77890;SDS011;67084;43.624;3.876;2024-01-11T12:39:06;30.60;;;20.25;;
77890;SDS011;67084;43.624;3.876;2024-01-11T12:41:34;33.63;;;19.88;;
77890;SDS011;67084;43.624;3.876;2024-01-11T12:44:00;31.25;;;19.63;;
77890;SDS011;67084;43.624;3.876;2024-01-11T12:46:26;31.98;;;21.42;;
77890;SDS011;67084;43.624;3.876;2024-01-11T12:48:53;33.20;;;21.63;;
77890;SDS011;67084;43.624;3.876;2024-01-11T12:51:20;34.45;;;22.38;;
77890;SDS011;67084;43.624;3.876;2024-01-11T12:53:50;33.45;;;21.38;;
77890;SDS011;67084;43.624;3.876;2024-01-11T12:56:16;31.75;;;20.40;;
77890;SDS011;67084;43.624;3.876;2024-01-11T12:58:43;32.58;;;21.52;;
77890;SDS011;67084;43.624;3.876;2024-01-11T13:01:11;29.65;;;18.77;;
77890;SDS011;67084;43.624;3.876;2024-01-11T13:03:39;32.40;;;20.85;;
77890;SDS011;67084;43.624;3.876;2024-01-11T13:06:05;33.78;;;21.75;;
77890;SDS011;67084;43.624;3.876;2024-01-11T13:08:33;33.97;;;20.15;;
77890;SDS011;67084;43.624;3.876;2024-01-11T13:11:02;30.08;;;19.45;;
77890;SDS011;67084;43.624;3.876;2024-01-11T13:13:35;32.63;;;19.73;;
77890;SDS011;67084;43.624;3.876;2024-01-11T13:16:04;30.27;;;19.23;;
77890;SDS011;67084;43.624;3.876;2024-01-11T13:18:31;29.67;;;20.45;;
77890;SDS011;67084;43.624;3.876;2024-01-11T13:20:57;32.05;;;19.45;;
77890;SDS011;67084;43.624;3.876;2024-01-11T13:23:24;34.80;;;26.42;;
77890;SDS011;67084;43.624;3.876;2024-01-11T13:25:50;31.75;;;21.00;;
77890;SDS011;67084;43.624;3.876;2024-01-11T13:28:16;28.98;;;18.42;;
77890;SDS011;67084;43.624;3.876;2024-01-11T13:30:44;31.30;;;19.67;;
77890;SDS011;67084;43.624;3.876;2024-01-11T13:33:11;31.30;;;19.80;;
77890;SDS011;67084;43.624;3.876;2024-01-11T13:35:37;32.95;;;20.60;;
77890;SDS011;67084;43.624;3.876;2024-01-11T13:38:03;30.00;;;20.08;;
77890;SDS011;67084;43.624;3.876;2024-01-11T13:40:30;29.77;;;19.15;;
77890;SDS011;67084;43.624;3.876;2024-01-11T13:42:56;31.50;;;20.48;;
77890;SDS011;67084;43.624;3.876;2024-01-11T13:45:22;32.03;;;19.15;;
77890;SDS011;67084;43.624;3.876;2024-01-11T13:47:48;32.53;;;19.65;;
77890;SDS011;67084;43.624;3.876;2024-01-11T13:50:15;33.50;;;21.98;;
77890;SDS011;67084;43.624;3.876;2024-01-11T13:52:41;32.00;;;20.23;;
77890;SDS011;67084;43.624;3.876;2024-01-11T13:55:07;31.73;;;20.67;;
77890;SDS011;67084;43.624;3.876;2024-01-11T13:57:37;33.95;;;20.70;;
77890;SDS011;67084;43.624;3.876;2024-01-11T14:00:03;32.00;;;20.38;;
77890;SDS011;67084;43.624;3.876;2024-01-11T14:02:30;35.22;;;26.02;;
77890;SDS011;67084;43.624;3.876;2024-01-11T14:04:56;33.40;;;21.20;;
77890;SDS011;67084;43.624;3.876;2024-01-11T14:07:22;36.28;;;22.38;;
77890;SDS011;67084;43.624;3.876;2024-01-11T14:09:49;33.67;;;21.77;;
77890;SDS011;67084;43.624;3.876;2024-01-11T14:12:15;29.58;;;17.88;;
77890;SDS011;67084;43.624;3.876;2024-01-11T14:14:41;30.80;;;19.27;;
77890;SDS011;67084;43.624;3.876;2024-01-11T14:17:08;33.88;;;21.92;;
77890;SDS011;67084;43.624;3.876;2024-01-11T14:19:34;36.30;;;22.33;;
77890;SDS011;67084;43.624;3.876;2024-01-11T14:22:00;31.85;;;20.02;;